Zenda, Wisconsin
Current Conditions -  °F | °C
As of 3:15 PM on Friday 24 Oct 2014 (Local Time) from KBUU Reporting Station
Clear Clear  
Wind Chill: 58°   Ceiling: Unl
Heat Index: 58°   Visibility: 10mi
Dew Point: 49°   Wind: 6mph
Humidity: 72%   Direction: 230°SW
Pressure: 29.97"   Gusts: NA
Location:  42.51°N, 88.48°W
Report Text: KBUU 242015Z AUTO 23005KT 10SM CLR 15/10 A2997 RMK AO2 T01460096
Loading
Personal Weather Stations






























Interactive Weather Map
Tropical Storm Tracking
New forecast layout! Learn more

10-Day Weather Forecast

Advertisements
Track Severe Weather on mobile